createdAt,value
2023-03-16T00:09:36.889Z,96.88
2023-03-16T00:19:46.930Z,96.85
2023-03-16T00:29:56.831Z,97.07
2023-03-16T00:40:01.421Z,96.98
2023-03-16T00:50:09.077Z,96.91
2023-03-16T01:00:20.712Z,96.41
2023-03-16T01:10:30.697Z,96.06
2023-03-16T01:20:40.012Z,96.13
2023-03-16T01:30:46.782Z,95.98
2023-03-16T01:40:55.427Z,96.43
2023-03-16T01:51:06.205Z,96.64
2023-03-16T02:01:14.135Z,97.08
2023-03-16T02:11:18.519Z,98.05
2023-03-16T02:21:38.900Z,98.33
2023-03-16T02:31:41.115Z,98.83
2023-03-16T02:41:43.686Z,98.61
2023-03-16T02:51:48.783Z,98.50
2023-03-16T03:01:56.381Z,98.57
2023-03-16T03:12:03.354Z,99.24
2023-03-16T03:22:08.309Z,100.00
2023-03-16T03:32:10.668Z,100.00
2023-03-16T03:42:13.221Z,100.00
2023-03-16T03:52:15.927Z,100.00
2023-03-16T04:02:20.255Z,100.00
2023-03-16T04:12:30.303Z,100.00
2023-03-16T04:22:38.665Z,100.00
2023-03-16T04:32:45.630Z,100.00
2023-03-16T04:42:54.876Z,100.00
2023-03-16T04:53:04.771Z,100.00
2023-03-16T05:03:10.520Z,100.00
2023-03-16T05:13:12.663Z,100.00
2023-03-16T05:23:19.507Z,100.00
2023-03-16T05:33:27.700Z,100.00
2023-03-16T05:43:39.233Z,94.19
2023-03-16T05:53:49.221Z,87.26
2023-03-16T06:04:05.573Z,83.02
2023-03-16T06:14:13.950Z,77.09
2023-03-16T06:24:16.696Z,73.05
2023-03-16T06:34:24.216Z,67.28
2023-03-16T06:44:26.789Z,64.20
2023-03-16T06:54:39.762Z,61.14
2023-03-16T07:04:42.469Z,61.70
2023-03-16T07:14:50.367Z,59.57
2023-03-16T07:24:57.590Z,58.74
2023-03-16T07:35:05.209Z,58.61
2023-03-16T07:45:09.255Z,58.71
2023-03-16T07:55:17.449Z,57.88
2023-03-16T08:05:21.477Z,59.48
2023-03-16T08:15:33.360Z,58.48
2023-03-16T08:25:42.341Z,57.53
2023-03-16T08:35:48.730Z,58.65
2023-03-16T08:45:54.109Z,57.43
2023-03-16T08:56:11.551Z,57.10
2023-03-16T09:06:19.078Z,57.34
2023-03-16T09:16:26.079Z,56.32
2023-03-16T09:26:28.823Z,56.16
2023-03-16T09:36:31.382Z,59.96
2023-03-16T09:46:40.030Z,62.80
2023-03-16T09:56:45.634Z,60.52
2023-03-16T10:06:54.729Z,59.70
2023-03-16T10:17:25.107Z,58.13
2023-03-16T10:27:32.264Z,58.93
2023-03-16T10:37:38.916Z,55.84
2023-03-16T10:47:43.600Z,54.72
2023-03-16T10:57:50.830Z,52.32
2023-03-16T11:08:02.295Z,50.65
2023-03-16T11:18:09.413Z,51.70
2023-03-16T11:28:24.421Z,49.55
2023-03-16T11:38:52.414Z,52.46
2023-03-16T11:49:18.965Z,54.48
2023-03-16T11:59:42.334Z,55.92
2023-03-16T12:09:53.475Z,60.43
2023-03-16T12:20:14.061Z,59.59
2023-03-16T12:30:53.825Z,58.59
2023-03-16T12:41:20.051Z,58.59
2023-03-16T12:51:38.902Z,56.48
2023-03-16T13:01:44.936Z,57.71
2023-03-16T13:11:51.568Z,58.07
2023-03-16T13:22:33.285Z,58.56
2023-03-16T13:32:36.237Z,57.11
2023-03-16T13:42:40.519Z,52.30
2023-03-16T13:52:58.864Z,49.66
2023-03-16T14:03:33.254Z,50.09
2023-03-16T14:13:39.483Z,51.63
2023-03-16T14:24:15.905Z,52.27
2023-03-16T14:34:30.373Z,50.74
2023-03-16T14:44:37.069Z,50.87
2023-03-16T14:54:42.279Z,50.91
2023-03-16T15:04:45.359Z,52.75
2023-03-16T15:15:06.871Z,53.88
2023-03-16T15:25:37.222Z,53.62
2023-03-16T15:35:44.318Z,52.74
2023-03-16T15:45:49.764Z,53.56
2023-03-16T15:55:56.660Z,54.00
2023-03-16T16:06:03.526Z,56.07
2023-03-16T16:16:06.892Z,58.05
2023-03-16T16:26:27.879Z,61.97
2023-03-16T16:36:35.831Z,66.41
2023-03-16T16:46:45.407Z,67.70
2023-03-16T16:56:53.796Z,68.97
2023-03-16T17:06:59.059Z,70.26
2023-03-16T17:17:09.907Z,71.57
2023-03-16T17:27:14.447Z,73.78
2023-03-16T17:37:21.413Z,75.14
2023-03-16T17:47:30.334Z,75.84
2023-03-16T17:57:33.860Z,76.60
2023-03-16T18:07:43.121Z,76.96
2023-03-16T18:17:52.047Z,77.63
2023-03-16T18:27:57.774Z,78.15
2023-03-16T18:38:02.356Z,78.08
2023-03-16T18:48:10.117Z,77.57
2023-03-16T18:58:22.953Z,77.80
2023-03-16T19:08:29.986Z,77.63
2023-03-16T19:18:42.478Z,78.20
2023-03-16T19:28:46.197Z,79.24
2023-03-16T19:38:53.765Z,80.17
2023-03-16T19:48:58.744Z,80.41
2023-03-16T19:59:04.822Z,79.29
2023-03-16T20:09:11.375Z,78.73
2023-03-16T20:19:20.885Z,78.14
2023-03-16T20:29:31.726Z,76.51
2023-03-16T20:39:38.700Z,76.90
2023-03-16T20:49:46.311Z,77.22
2023-03-16T20:59:49.547Z,77.08
2023-03-16T21:09:52.376Z,76.11
2023-03-16T21:19:54.620Z,76.60
2023-03-16T21:30:07.712Z,77.03
2023-03-16T21:40:20.985Z,82.53
2023-03-16T21:50:28.022Z,81.38
2023-03-16T22:00:34.462Z,81.65
2023-03-16T22:10:44.802Z,82.66
2023-03-16T22:20:49.686Z,83.53
2023-03-16T22:30:57.704Z,84.61
2023-03-16T22:40:59.879Z,86.10
2023-03-16T22:51:05.102Z,87.37
2023-03-16T23:01:19.444Z,87.71
2023-03-16T23:11:36.001Z,89.65
2023-03-16T23:21:43.556Z,89.41
2023-03-16T23:31:45.707Z,90.20
2023-03-16T23:41:52.255Z,90.51
2023-03-16T23:52:01.588Z,91.93
